createdAt,value
2023-04-14T00:00:48.132Z,10.40
2023-04-14T00:03:16.794Z,10.20
2023-04-14T00:05:44.941Z,10.10
2023-04-14T00:08:12.927Z,10.30
2023-04-14T00:10:42.291Z,10.20
2023-04-14T00:13:10.398Z,10.10
2023-04-14T00:15:38.523Z,10.20
2023-04-14T00:18:06.714Z,10.30
2023-04-14T00:20:34.806Z,10.20
2023-04-14T00:23:02.789Z,10.10
2023-04-14T00:25:30.742Z,10.10
2023-04-14T00:28:00.148Z,10.00
2023-04-14T00:30:28.213Z,10.00
2023-04-14T00:32:56.229Z,9.90
2023-04-14T00:35:25.589Z,9.90
2023-04-14T00:37:53.568Z,9.90
2023-04-14T00:40:21.649Z,10.00
2023-04-14T00:42:50.624Z,10.00
2023-04-14T00:45:19.955Z,10.10
2023-04-14T00:47:50.721Z,10.10
2023-04-14T00:50:20.682Z,10.10
2023-04-14T00:52:50.606Z,10.20
2023-04-14T00:55:21.119Z,10.20
2023-04-14T00:57:49.767Z,10.30
2023-04-14T01:00:19.783Z,10.30
2023-04-14T01:02:48.034Z,10.20
2023-04-14T01:05:16.472Z,10.30
2023-04-14T01:07:45.151Z,10.30
2023-04-14T01:10:13.578Z,10.20
2023-04-14T01:13:01.890Z,10.30
2023-04-14T01:15:36.726Z,10.20
2023-04-14T01:18:11.320Z,10.20
2023-04-14T01:20:44.683Z,10.10
2023-04-14T01:23:16.943Z,10.00
2023-04-14T01:26:18.099Z,10.10
2023-04-14T01:29:22.677Z,10.00
2023-04-14T01:31:56.315Z,10.00
2023-04-14T01:34:32.489Z,10.00
2023-04-14T01:37:06.327Z,10.10
2023-04-14T01:39:37.652Z,10.10
2023-04-14T01:42:10.074Z,10.20
2023-04-14T01:44:40.380Z,10.20
2023-04-14T01:47:13.820Z,10.30
2023-04-14T01:49:43.405Z,10.30
2023-04-14T01:52:12.553Z,10.40
2023-04-14T01:54:43.669Z,10.40
2023-04-14T01:57:13.885Z,10.40
2023-04-14T01:59:43.606Z,10.40
2023-04-14T02:02:14.923Z,10.60
2023-04-14T02:04:44.218Z,10.60
2023-04-14T02:07:13.560Z,10.60
2023-04-14T02:09:44.321Z,10.50
2023-04-14T02:12:13.440Z,10.30
2023-04-14T02:14:43.326Z,10.30
2023-04-14T02:17:13.646Z,10.20
2023-04-14T02:19:44.424Z,10.30
2023-04-14T02:22:12.645Z,10.50
2023-04-14T02:24:40.809Z,10.20
2023-04-14T02:27:12.751Z,10.20
2023-04-14T02:29:44.505Z,10.20
2023-04-14T02:32:20.954Z,10.30
2023-04-14T02:34:53.446Z,10.30
2023-04-14T02:37:25.899Z,10.40
2023-04-14T02:40:00.055Z,10.40
2023-04-14T02:42:29.680Z,10.40
2023-04-14T02:45:03.551Z,10.20
2023-04-14T02:47:36.685Z,10.10
2023-04-14T02:50:09.149Z,10.10
2023-04-14T02:52:38.689Z,10.20
2023-04-14T02:55:08.860Z,10.20
2023-04-14T02:57:37.268Z,10.20
2023-04-14T03:00:06.546Z,10.10
2023-04-14T03:02:37.487Z,10.00
2023-04-14T03:05:07.317Z,9.90
2023-04-14T03:07:36.320Z,10.00
2023-04-14T03:10:04.998Z,10.00
2023-04-14T03:12:36.012Z,10.00
2023-04-14T03:15:04.495Z,10.10
2023-04-14T03:17:33.829Z,10.20
2023-04-14T03:20:03.695Z,10.10
2023-04-14T03:22:34.330Z,10.00
2023-04-14T03:25:02.342Z,10.20
2023-04-14T03:27:31.733Z,10.30
2023-04-14T03:30:04.325Z,10.30
2023-04-14T03:32:36.095Z,10.20
2023-04-14T03:35:07.069Z,10.20
2023-04-14T03:37:39.083Z,10.20
2023-04-14T03:40:11.142Z,10.20
2023-04-14T03:42:44.646Z,10.10
2023-04-14T03:45:13.125Z,10.00
2023-04-14T03:47:41.127Z,10.20
2023-04-14T03:50:15.476Z,10.20
2023-04-14T03:52:46.994Z,10.30
2023-04-14T03:55:18.863Z,10.20
2023-04-14T03:57:48.383Z,10.20
2023-04-14T04:00:17.507Z,10.20
2023-04-14T04:02:46.252Z,9.90
2023-04-14T04:05:16.726Z,9.70
2023-04-14T04:07:45.864Z,9.90
2023-04-14T04:10:16.410Z,9.80
2023-04-14T04:12:45.245Z,9.80
2023-04-14T04:15:13.395Z,9.80
2023-04-14T04:17:42.619Z,9.80
2023-04-14T04:20:15.790Z,9.80
2023-04-14T04:22:47.400Z,9.90
2023-04-14T04:25:16.010Z,9.80
2023-04-14T04:27:44.175Z,9.80
2023-04-14T04:30:14.236Z,9.80
2023-04-14T04:32:42.321Z,9.70
2023-04-14T04:35:11.557Z,9.70
2023-04-14T04:37:43.059Z,9.80
2023-04-14T04:40:12.340Z,9.70
2023-04-14T04:42:43.974Z,9.60
2023-04-14T04:45:12.511Z,9.70
2023-04-14T04:47:40.490Z,9.80
2023-04-14T04:50:09.325Z,9.90
2023-04-14T04:52:37.325Z,9.90
2023-04-14T04:55:08.253Z,10.00
2023-04-14T04:57:36.244Z,10.00
2023-04-14T05:00:05.426Z,10.00
2023-04-14T05:02:33.503Z,10.10
2023-04-14T05:05:01.792Z,10.20
2023-04-14T05:07:29.849Z,10.30
2023-04-14T05:09:57.841Z,10.30
2023-04-14T05:12:27.161Z,10.30
2023-04-14T05:14:55.088Z,10.40
2023-04-14T05:17:23.263Z,10.50
2023-04-14T05:19:51.427Z,10.60
2023-04-14T05:22:19.369Z,10.60
2023-04-14T05:24:50.552Z,10.50
2023-04-14T05:27:18.772Z,10.60
2023-04-14T05:29:48.138Z,10.70
2023-04-14T05:32:16.618Z,10.90
2023-04-14T05:34:44.579Z,10.80
2023-04-14T05:37:12.607Z,11.00
2023-04-14T05:39:40.636Z,11.20
2023-04-14T05:42:08.596Z,11.20
2023-04-14T05:44:36.571Z,10.90
2023-04-14T05:47:06.216Z,10.90
2023-04-14T05:49:34.276Z,10.70
2023-04-14T05:52:02.428Z,10.90
2023-04-14T05:54:30.581Z,10.80
2023-04-14T05:56:58.582Z,10.70
2023-04-14T05:59:27.338Z,10.70
2023-04-14T06:01:55.341Z,10.60
2023-04-14T06:04:24.913Z,10.60
2023-04-14T06:06:58.631Z,10.70
2023-04-14T06:09:26.654Z,10.90
2023-04-14T06:11:54.621Z,11.10
2023-04-14T06:14:22.634Z,11.10
2023-04-14T06:16:51.331Z,11.00
2023-04-14T06:19:19.494Z,11.10
2023-04-14T06:22:17.723Z,11.10
2023-04-14T06:24:45.999Z,11.20
2023-04-14T06:27:14.502Z,11.10
2023-04-14T06:29:42.611Z,11.40
2023-04-14T06:32:10.708Z,11.50
2023-04-14T06:34:38.827Z,11.60
2023-04-14T06:37:08.290Z,11.70
2023-04-14T06:39:36.333Z,12.00
2023-04-14T06:42:04.366Z,11.90
2023-04-14T06:44:32.334Z,12.00
2023-04-14T06:47:00.397Z,12.00
2023-04-14T06:49:28.399Z,11.90
2023-04-14T06:51:56.372Z,12.10
2023-04-14T06:54:25.796Z,12.40
2023-04-14T06:56:53.832Z,12.10
2023-04-14T06:59:26.054Z,12.40
2023-04-14T07:01:54.120Z,12.60
2023-04-14T07:04:23.068Z,13.00
2023-04-14T07:06:52.105Z,12.80
2023-04-14T07:09:21.194Z,12.80
2023-04-14T07:11:53.603Z,13.00
2023-04-14T07:14:21.851Z,13.20
2023-04-14T07:16:49.996Z,13.40
2023-04-14T07:19:18.052Z,13.30
2023-04-14T07:21:46.386Z,13.10
2023-04-14T07:24:15.680Z,12.90
2023-04-14T07:26:44.429Z,13.00
2023-04-14T07:29:13.991Z,14.30
2023-04-14T07:31:42.760Z,13.20
2023-04-14T07:34:11.001Z,13.40
2023-04-14T07:36:39.018Z,13.50
2023-04-14T07:39:07.010Z,13.60
2023-04-14T07:41:35.023Z,13.60
2023-04-14T07:44:03.434Z,13.40
2023-04-14T07:46:33.282Z,13.30
2023-04-14T07:49:01.270Z,13.30
2023-04-14T07:51:29.347Z,13.30
2023-04-14T07:53:57.446Z,13.10
2023-04-14T07:56:25.442Z,13.20
2023-04-14T07:58:53.370Z,13.40
2023-04-14T08:01:21.423Z,13.60
2023-04-14T08:03:50.919Z,13.70
2023-04-14T08:06:19.088Z,14.00
2023-04-14T08:08:47.879Z,14.30
2023-04-14T08:11:16.177Z,14.10
2023-04-14T08:13:44.683Z,14.20
2023-04-14T08:16:12.903Z,14.30
2023-04-14T08:18:41.537Z,14.10
2023-04-14T08:21:10.964Z,14.10
2023-04-14T08:23:39.108Z,14.20
2023-04-14T08:26:07.387Z,14.20
2023-04-14T08:28:35.725Z,14.40
2023-04-14T08:31:03.699Z,14.50
2023-04-14T08:33:31.688Z,14.30
2023-04-14T08:36:00.781Z,14.30
2023-04-14T08:38:30.441Z,14.10
2023-04-14T08:40:59.719Z,14.00
2023-04-14T08:43:28.510Z,14.00
2023-04-14T08:45:58.548Z,13.90
2023-04-14T08:48:32.020Z,14.00
2023-04-14T08:51:06.420Z,14.00
2023-04-14T08:53:42.866Z,14.20
2023-04-14T08:56:13.287Z,14.30
2023-04-14T08:58:41.868Z,14.60
2023-04-14T09:01:10.329Z,14.90
2023-04-14T09:03:39.418Z,15.60
2023-04-14T09:06:07.776Z,16.70
2023-04-14T09:08:37.389Z,17.00
2023-04-14T09:11:05.733Z,17.50
2023-04-14T09:13:33.854Z,17.60
2023-04-14T09:16:02.606Z,18.00
2023-04-14T09:18:31.629Z,20.50
2023-04-14T09:21:50.856Z,21.50
2023-04-14T09:23:51.984Z,22.90
2023-04-14T09:26:19.969Z,24.40
2023-04-14T09:28:47.963Z,25.60
2023-04-14T09:31:16.055Z,28.10
2023-04-14T09:33:45.888Z,27.50
2023-04-14T09:36:20.457Z,25.00
2023-04-14T09:38:51.334Z,22.60
2023-04-14T09:41:22.881Z,23.50
2023-04-14T09:43:52.763Z,25.10
2023-04-14T09:46:21.050Z,26.40
2023-04-14T09:48:53.493Z,23.90
2023-04-14T09:51:28.386Z,22.50
2023-04-14T09:54:02.535Z,21.40
2023-04-14T09:57:06.315Z,20.60
2023-04-14T09:59:35.439Z,20.50
2023-04-14T10:02:06.409Z,19.90
2023-04-14T10:07:30.570Z,18.60
2023-04-14T10:09:58.617Z,18.50
2023-04-14T10:12:27.982Z,18.40
2023-04-14T10:14:56.174Z,18.40
2023-04-14T10:17:24.348Z,18.50
2023-04-14T10:19:52.836Z,18.50
2023-04-14T10:22:22.062Z,18.40
2023-04-14T10:24:52.262Z,18.20
2023-04-14T10:27:20.657Z,18.00
2023-04-14T10:29:50.198Z,18.20
2023-04-14T10:32:19.335Z,18.10
2023-04-14T10:35:01.171Z,18.30
2023-04-14T10:37:29.275Z,18.40
2023-04-14T10:39:58.471Z,18.40
2023-04-14T10:42:27.085Z,18.40
2023-04-14T10:45:08.131Z,18.50
2023-04-14T10:47:40.878Z,18.30
2023-04-14T10:50:14.215Z,18.30
2023-04-14T10:52:51.015Z,18.30
2023-04-14T10:55:23.166Z,18.00
2023-04-14T10:57:51.401Z,17.80
2023-04-14T11:00:26.365Z,17.80
2023-04-14T11:03:04.832Z,18.00
2023-04-14T11:05:34.667Z,17.80
2023-04-14T11:08:13.394Z,17.80
2023-04-14T11:10:42.796Z,17.80
2023-04-14T11:13:13.170Z,17.70
2023-04-14T11:15:50.748Z,17.80
2023-04-14T11:18:32.034Z,17.80
2023-04-14T11:21:04.337Z,17.70
2023-04-14T11:23:32.607Z,17.70
2023-04-14T11:26:01.410Z,17.80
2023-04-14T11:28:30.756Z,17.80
2023-04-14T11:31:01.391Z,17.80
2023-04-14T11:33:30.713Z,17.80
2023-04-14T11:35:59.896Z,18.00
2023-04-14T11:38:28.433Z,18.30
2023-04-14T11:40:57.400Z,18.60
2023-04-14T11:43:26.103Z,18.80
2023-04-14T11:45:54.837Z,18.70
2023-04-14T11:48:24.329Z,18.90
2023-04-14T11:50:52.267Z,19.40
2023-04-14T11:53:21.186Z,19.50
2023-04-14T11:55:50.727Z,19.30
2023-04-14T11:58:23.867Z,19.00
2023-04-14T12:00:55.081Z,19.00
2023-04-14T12:03:27.871Z,18.90
2023-04-14T12:05:58.475Z,18.70
2023-04-14T12:08:27.059Z,18.70
2023-04-14T12:10:56.316Z,18.70
2023-04-14T12:13:26.504Z,18.90
2023-04-14T12:15:55.275Z,18.90
2023-04-14T12:18:23.614Z,19.00
2023-04-14T12:20:55.836Z,19.10
2023-04-14T12:23:25.681Z,19.00
2023-04-14T12:25:53.861Z,18.90
2023-04-14T12:28:27.738Z,18.90
2023-04-14T12:30:59.235Z,19.20
2023-04-14T12:33:28.738Z,19.40
2023-04-14T12:36:04.791Z,19.50
2023-04-14T12:38:32.992Z,19.50
2023-04-14T12:41:01.635Z,19.50
2023-04-14T12:43:31.457Z,19.20
2023-04-14T12:45:59.861Z,19.00
2023-04-14T12:48:45.858Z,18.70
2023-04-14T12:51:17.491Z,18.70
2023-04-14T12:53:46.892Z,18.60
2023-04-14T12:56:16.582Z,18.70
2023-04-14T12:58:58.680Z,18.90
2023-04-14T13:01:26.836Z,18.90
2023-04-14T13:03:56.079Z,19.20
2023-04-14T13:06:26.440Z,19.10
2023-04-14T13:08:56.075Z,18.90
2023-04-14T13:11:25.142Z,18.90
2023-04-14T13:13:54.437Z,18.70
2023-04-14T13:16:22.893Z,18.80
2023-04-14T13:18:54.639Z,18.90
2023-04-14T13:21:22.578Z,18.90
2023-04-14T13:23:51.902Z,18.90
2023-04-14T13:26:19.923Z,18.90
2023-04-14T13:28:50.344Z,18.80
2023-04-14T13:31:19.194Z,18.80
2023-04-14T13:33:47.249Z,18.60
2023-04-14T13:36:15.688Z,18.30
2023-04-14T13:38:43.789Z,18.20
2023-04-14T13:41:15.330Z,18.00
2023-04-14T13:43:43.356Z,18.00
2023-04-14T13:46:11.392Z,18.00
2023-04-14T13:48:39.490Z,18.10
2023-04-14T13:51:07.524Z,18.00
2023-04-14T13:53:35.497Z,18.10
2023-04-14T13:56:03.606Z,18.10
2023-04-14T13:58:33.263Z,18.10
2023-04-14T14:01:10.602Z,17.90
2023-04-14T14:03:40.691Z,17.90
2023-04-14T14:06:08.804Z,17.90
2023-04-14T14:08:37.945Z,17.90
2023-04-14T14:11:06.852Z,18.00
2023-04-14T14:13:38.650Z,17.80
2023-04-14T14:16:07.365Z,17.80
2023-04-14T14:18:36.726Z,17.70
2023-04-14T14:21:05.296Z,17.70
2023-04-14T14:23:33.306Z,17.50
2023-04-14T14:26:01.324Z,17.50
2023-04-14T14:28:29.296Z,17.70
2023-04-14T14:30:58.687Z,17.80
2023-04-14T14:33:26.669Z,17.80
2023-04-14T14:35:55.245Z,17.80
2023-04-14T14:38:23.176Z,17.80
2023-04-14T14:40:51.414Z,17.90
2023-04-14T14:43:19.365Z,18.00
2023-04-14T14:45:47.426Z,17.90
2023-04-14T14:48:16.794Z,17.90
2023-04-14T14:50:45.066Z,17.70
2023-04-14T14:53:13.024Z,17.50
2023-04-14T14:55:41.009Z,17.50
2023-04-14T14:58:09.574Z,17.40
2023-04-14T15:00:37.571Z,17.20
2023-04-14T15:03:06.359Z,17.10
2023-04-14T15:05:35.994Z,17.10
2023-04-14T15:08:04.343Z,17.20
2023-04-14T15:10:32.313Z,17.20
2023-04-14T15:13:00.275Z,17.10
2023-04-14T15:15:29.051Z,17.10
2023-04-14T15:17:57.756Z,16.90
2023-04-14T15:20:26.081Z,16.90
2023-04-14T15:22:55.557Z,16.80
2023-04-14T15:25:23.695Z,16.80
2023-04-14T15:27:52.592Z,16.90
2023-04-14T15:30:23.587Z,16.70
2023-04-14T15:32:51.717Z,16.70
2023-04-14T15:35:19.765Z,16.60
2023-04-14T15:37:47.848Z,16.70
2023-04-14T15:40:17.380Z,16.60
2023-04-14T15:42:45.388Z,16.50
2023-04-14T15:45:14.567Z,16.50
2023-04-14T15:47:42.572Z,16.50
2023-04-14T15:50:12.872Z,16.60
2023-04-14T15:52:46.616Z,16.50
2023-04-14T15:55:14.626Z,16.50
2023-04-14T15:57:43.911Z,16.50
2023-04-14T16:00:13.060Z,16.50
2023-04-14T16:02:42.092Z,16.40
2023-04-14T16:05:10.696Z,16.40
2023-04-14T16:07:38.735Z,16.40
2023-04-14T16:10:08.562Z,16.40
2023-04-14T16:12:36.774Z,16.30
2023-04-14T16:15:08.062Z,16.20
2023-04-14T16:17:36.461Z,16.10
2023-04-14T16:20:04.654Z,16.20
2023-04-14T16:22:32.606Z,16.10
2023-04-14T16:25:00.685Z,16.10
2023-04-14T16:27:29.375Z,16.00
2023-04-14T16:29:57.475Z,16.00
2023-04-14T16:32:26.889Z,15.90
2023-04-14T16:34:54.901Z,15.90
2023-04-14T16:37:25.754Z,15.70
2023-04-14T16:39:56.024Z,15.70
2023-04-14T16:42:25.109Z,15.70
2023-04-14T16:44:53.549Z,15.60
2023-04-14T16:47:22.037Z,15.60
2023-04-14T16:49:51.744Z,15.60
2023-04-14T16:52:20.191Z,15.50
2023-04-14T16:54:48.177Z,15.50
2023-04-14T16:57:16.482Z,15.50
2023-04-14T16:59:46.217Z,15.30
2023-04-14T17:02:14.325Z,15.40
2023-04-14T17:04:42.649Z,15.20
2023-04-14T17:07:12.523Z,15.10
2023-04-14T17:09:40.489Z,15.00
2023-04-14T17:12:08.654Z,14.90
2023-04-14T17:14:37.264Z,14.90
2023-04-14T17:17:05.474Z,14.90
2023-04-14T17:19:34.234Z,14.80
2023-04-14T17:22:02.206Z,14.60
2023-04-14T17:24:31.544Z,14.50
2023-04-14T17:27:00.562Z,14.60
2023-04-14T17:29:29.006Z,14.50
2023-04-14T17:31:57.127Z,14.50
2023-04-14T17:34:25.603Z,14.60
2023-04-14T17:36:53.579Z,14.40
2023-04-14T17:39:26.685Z,14.40
2023-04-14T17:41:58.059Z,14.30
2023-04-14T17:44:32.576Z,14.30
2023-04-14T17:47:03.043Z,14.30
2023-04-14T17:49:31.517Z,14.60
2023-04-14T17:51:59.642Z,14.20
2023-04-14T17:54:27.638Z,14.10
2023-04-14T17:56:57.677Z,14.10
2023-04-14T17:59:26.015Z,14.10
2023-04-14T18:01:54.168Z,13.90
2023-04-14T18:04:22.444Z,14.00
2023-04-14T18:06:51.389Z,13.90
2023-04-14T18:09:19.357Z,13.90
2023-04-14T18:11:47.377Z,13.90
2023-04-14T18:14:16.712Z,13.90
2023-04-14T18:16:44.838Z,13.90
2023-04-14T18:19:12.940Z,14.00
2023-04-14T18:21:42.218Z,13.80
2023-04-14T18:26:43.639Z,13.70
2023-04-14T18:29:12.093Z,13.70
2023-04-14T18:31:42.711Z,13.80
2023-04-14T18:34:12.602Z,13.90
2023-04-14T18:36:40.632Z,13.90
2023-04-14T18:39:09.173Z,13.90
2023-04-14T18:41:37.200Z,13.90
2023-04-14T18:44:05.557Z,13.90
2023-04-14T18:46:33.642Z,14.00
2023-04-14T18:49:03.483Z,13.80
2023-04-14T18:51:32.526Z,13.80
2023-04-14T18:54:00.732Z,13.80
2023-04-14T18:56:29.052Z,13.80
2023-04-14T18:58:57.645Z,13.80
2023-04-14T19:01:25.692Z,13.80
2023-04-14T19:03:54.499Z,13.80
2023-04-14T19:06:23.958Z,13.70
2023-04-14T19:08:51.998Z,13.70
2023-04-14T19:11:20.688Z,13.70
2023-04-14T19:13:48.715Z,13.70
2023-04-14T19:16:17.170Z,13.70
2023-04-14T19:18:45.324Z,13.70
2023-04-14T19:21:13.346Z,13.60
2023-04-14T19:23:43.172Z,13.70
2023-04-14T19:26:11.603Z,13.70
2023-04-14T19:28:42.344Z,13.70
2023-04-14T19:31:10.422Z,13.60
2023-04-14T19:33:41.721Z,13.60
2023-04-14T19:36:14.187Z,13.50
2023-04-14T19:38:44.112Z,13.50
2023-04-14T19:41:12.605Z,13.40
2023-04-14T19:43:40.655Z,13.50
2023-04-14T19:46:10.489Z,13.40
2023-04-14T19:48:39.008Z,13.40
2023-04-14T19:51:07.026Z,13.40
2023-04-14T19:53:35.051Z,13.40
2023-04-14T19:56:05.735Z,13.30
2023-04-14T19:58:34.001Z,13.30
2023-04-14T20:01:02.039Z,13.40
2023-04-14T20:03:31.600Z,13.30
2023-04-14T20:06:02.017Z,13.30
2023-04-14T20:08:30.583Z,13.30
2023-04-14T20:10:58.608Z,13.30
2023-04-14T20:13:30.693Z,13.30
2023-04-14T20:15:58.973Z,13.30
2023-04-14T20:18:28.009Z,13.30
2023-04-14T20:20:56.578Z,13.30
2023-04-14T20:23:24.643Z,13.30
2023-04-14T20:25:54.088Z,13.20
2023-04-14T20:28:25.745Z,13.20
2023-04-14T20:30:55.988Z,13.20
2023-04-14T20:33:24.703Z,13.10
2023-04-14T20:35:54.010Z,13.10
2023-04-14T20:38:22.501Z,13.10
2023-04-14T20:40:50.555Z,13.10
2023-04-14T20:43:18.561Z,13.00
2023-04-14T20:45:49.876Z,13.10
2023-04-14T20:48:19.596Z,13.00
2023-04-14T20:50:49.718Z,13.00
2023-04-14T20:53:18.026Z,13.00
2023-04-14T20:55:46.107Z,12.90
2023-04-14T20:58:14.252Z,12.90
2023-04-14T21:00:42.215Z,12.80
2023-04-14T21:03:11.198Z,12.90
2023-04-14T21:05:40.742Z,12.90
2023-04-14T21:08:09.424Z,12.90
2023-04-14T21:11:15.596Z,13.00
2023-04-14T21:15:28.075Z,12.90
2023-04-14T21:16:14.752Z,12.90
2023-04-14T21:18:42.813Z,12.90
2023-04-14T21:21:13.058Z,12.90
2023-04-14T21:23:41.101Z,12.90
2023-04-14T21:26:09.176Z,12.90
2023-04-14T21:28:37.140Z,12.90
2023-04-14T21:31:05.531Z,12.80
2023-04-14T21:33:33.598Z,12.80
2023-04-14T21:36:01.880Z,12.80
2023-04-14T21:38:31.533Z,12.80
2023-04-14T21:40:59.475Z,12.80
2023-04-14T21:43:27.572Z,12.90
2023-04-14T21:45:56.386Z,12.90
2023-04-14T21:48:24.647Z,12.80
2023-04-14T21:50:52.656Z,12.80
2023-04-14T21:53:20.821Z,12.80
2023-04-14T21:56:09.269Z,12.80
2023-04-14T21:58:39.267Z,12.80
2023-04-14T22:01:09.675Z,12.70
2023-04-14T22:03:40.428Z,12.70
2023-04-14T22:06:10.024Z,12.60
2023-04-14T22:08:39.166Z,12.60
2023-04-14T22:11:08.526Z,12.50
2023-04-14T22:13:36.544Z,12.40
2023-04-14T22:16:05.251Z,12.30
2023-04-14T22:18:33.247Z,12.30
2023-04-14T22:21:01.539Z,12.20
2023-04-14T22:23:29.523Z,12.20
2023-04-14T22:25:57.518Z,12.10
2023-04-14T22:28:27.321Z,12.10
2023-04-14T22:30:55.366Z,12.00
2023-04-14T22:33:23.389Z,12.00
2023-04-14T22:35:51.457Z,12.00
2023-04-14T22:38:19.426Z,12.00
2023-04-14T22:40:49.265Z,12.00
2023-04-14T22:43:18.559Z,12.00
2023-04-14T22:45:48.297Z,12.10
2023-04-14T22:48:16.425Z,12.10
2023-04-14T22:50:44.402Z,12.10
2023-04-14T22:53:12.449Z,12.10
2023-04-14T22:55:40.495Z,12.10
2023-04-14T22:58:09.510Z,12.10
2023-04-14T23:00:37.476Z,12.20
2023-04-14T23:03:06.952Z,12.20
2023-04-14T23:05:35.106Z,12.20
2023-04-14T23:08:03.176Z,12.20
2023-04-14T23:10:31.259Z,12.20
2023-04-14T23:12:59.240Z,12.10
2023-04-14T23:15:27.587Z,12.10
2023-04-14T23:17:56.095Z,12.20
2023-04-14T23:20:25.558Z,12.00
2023-04-14T23:22:53.519Z,12.00
2023-04-14T23:25:22.493Z,11.90
2023-04-14T23:27:50.505Z,11.70
2023-04-14T23:30:19.374Z,12.00
2023-04-14T23:32:47.496Z,12.00
2023-04-14T23:35:15.683Z,11.90
2023-04-14T23:37:44.992Z,11.90
2023-04-14T23:40:14.305Z,11.90
2023-04-14T23:42:42.251Z,11.80
2023-04-14T23:45:10.913Z,11.80
2023-04-14T23:47:38.976Z,11.80
2023-04-14T23:50:08.545Z,11.80
2023-04-14T23:52:37.232Z,11.80
2023-04-14T23:55:07.086Z,11.70
2023-04-14T23:57:35.073Z,11.60
